sensor_id;sensor_type;location;lat;lon;timestamp;pressure;altitude;pressure_sealevel;temperature;humidity
76553;BME280;65395;53.168;18.156;2023-05-14T00:01:08;101694.26;;;12.05;60.71
76553;BME280;65395;53.168;18.156;2023-05-14T00:03:35;101691.11;;;12.01;60.65
76553;BME280;65395;53.168;18.156;2023-05-14T00:06:02;101687.04;;;11.96;60.72
76553;BME280;65395;53.168;18.156;2023-05-14T00:08:29;101683.52;;;11.89;60.79
76553;BME280;65395;53.168;18.156;2023-05-14T00:10:56;101680.74;;;11.79;61.14
76553;BME280;65395;53.168;18.156;2023-05-14T00:13:23;101678.84;;;11.68;61.38
76553;BME280;65395;53.168;18.156;2023-05-14T00:15:54;101676.95;;;11.55;61.54
76553;BME280;65395;53.168;18.156;2023-05-14T00:18:20;101676.69;;;11.41;61.96
76553;BME280;65395;53.168;18.156;2023-05-14T00:20:47;101675.73;;;11.30;62.29
76553;BME280;65395;53.168;18.156;2023-05-14T00:23:15;101671.41;;;11.17;62.52
76553;BME280;65395;53.168;18.156;2023-05-14T00:25:42;101673.63;;;11.04;62.70
76553;BME280;65395;53.168;18.156;2023-05-14T00:28:08;101677.88;;;10.90;62.83
76553;BME280;65395;53.168;18.156;2023-05-14T00:30:35;101681.71;;;10.78;62.96
76553;BME280;65395;53.168;18.156;2023-05-14T00:33:02;101680.98;;;10.66;63.00
76553;BME280;65395;53.168;18.156;2023-05-14T00:35:29;101676.84;;;10.54;63.01
76553;BME280;65395;53.168;18.156;2023-05-14T00:37:56;101674.49;;;10.44;63.21
76553;BME280;65395;53.168;18.156;2023-05-14T00:40:25;101678.95;;;10.39;63.32
76553;BME280;65395;53.168;18.156;2023-05-14T00:42:54;101674.84;;;10.36;63.34
76553;BME280;65395;53.168;18.156;2023-05-14T00:45:21;101669.45;;;10.32;63.72
76553;BME280;65395;53.168;18.156;2023-05-14T00:47:48;101673.45;;;10.29;63.48
76553;BME280;65395;53.168;18.156;2023-05-14T00:50:15;101669.34;;;10.29;63.42
76553;BME280;65395;53.168;18.156;2023-05-14T00:52:43;101677.59;;;10.28;63.53
76553;BME280;65395;53.168;18.156;2023-05-14T00:55:11;101671.09;;;10.24;63.51
76553;BME280;65395;53.168;18.156;2023-05-14T00:57:41;101672.08;;;10.19;63.63
76553;BME280;65395;53.168;18.156;2023-05-14T01:00:09;101674.75;;;10.15;63.70
76553;BME280;65395;53.168;18.156;2023-05-14T01:02:36;101671.40;;;10.12;63.78
76553;BME280;65395;53.168;18.156;2023-05-14T01:05:03;101671.89;;;10.07;63.91
76553;BME280;65395;53.168;18.156;2023-05-14T01:07:47;101672.50;;;10.04;64.01
76553;BME280;65395;53.168;18.156;2023-05-14T01:10:28;101674.01;;;9.99;64.19
76553;BME280;65395;53.168;18.156;2023-05-14T01:13:07;101671.00;;;9.97;64.33
76553;BME280;65395;53.168;18.156;2023-05-14T01:15:36;101675.08;;;9.91;64.34
76553;BME280;65395;53.168;18.156;2023-05-14T01:18:09;101672.44;;;9.83;64.32
76553;BME280;65395;53.168;18.156;2023-05-14T01:20:37;101669.91;;;9.74;64.53
76553;BME280;65395;53.168;18.156;2023-05-14T01:23:03;101672.70;;;9.65;64.60
76553;BME280;65395;53.168;18.156;2023-05-14T01:25:30;101678.59;;;9.55;64.79
76553;BME280;65395;53.168;18.156;2023-05-14T01:28:05;101681.08;;;9.44;65.14
76553;BME280;65395;53.168;18.156;2023-05-14T01:30:37;101673.54;;;9.31;65.38
76553;BME280;65395;53.168;18.156;2023-05-14T01:33:09;101670.90;;;9.21;65.99
76553;BME280;65395;53.168;18.156;2023-05-14T01:35:36;101669.20;;;9.13;66.24
76553;BME280;65395;53.168;18.156;2023-05-14T01:38:06;101666.83;;;9.07;66.32
76553;BME280;65395;53.168;18.156;2023-05-14T01:40:35;101659.61;;;9.00;66.53
76553;BME280;65395;53.168;18.156;2023-05-14T01:43:03;101662.00;;;8.92;66.60
76553;BME280;65395;53.168;18.156;2023-05-14T01:45:34;101661.27;;;8.86;66.65
76553;BME280;65395;53.168;18.156;2023-05-14T01:48:01;101659.96;;;8.78;66.79
76553;BME280;65395;53.168;18.156;2023-05-14T01:50:27;101660.64;;;8.71;66.97
76553;BME280;65395;53.168;18.156;2023-05-14T01:52:54;101657.55;;;8.67;67.22
76553;BME280;65395;53.168;18.156;2023-05-14T01:55:22;101653.17;;;8.62;67.09
76553;BME280;65395;53.168;18.156;2023-05-14T01:57:50;101654.90;;;8.55;67.17
76553;BME280;65395;53.168;18.156;2023-05-14T02:00:19;101651.64;;;8.51;67.45
76553;BME280;65395;53.168;18.156;2023-05-14T02:02:46;101648.92;;;8.47;67.61
76553;BME280;65395;53.168;18.156;2023-05-14T02:05:12;101644.89;;;8.43;67.76
76553;BME280;65395;53.168;18.156;2023-05-14T02:07:39;101645.55;;;8.42;68.12
76553;BME280;65395;53.168;18.156;2023-05-14T02:10:06;101646.05;;;8.42;68.09
76553;BME280;65395;53.168;18.156;2023-05-14T02:12:33;101649.77;;;8.42;67.95
76553;BME280;65395;53.168;18.156;2023-05-14T02:15:01;101649.46;;;8.39;67.89
76553;BME280;65395;53.168;18.156;2023-05-14T02:17:29;101644.45;;;8.33;68.38
76553;BME280;65395;53.168;18.156;2023-05-14T02:19:55;101643.88;;;8.28;68.33
76553;BME280;65395;53.168;18.156;2023-05-14T02:22:22;101643.68;;;8.24;68.31
76553;BME280;65395;53.168;18.156;2023-05-14T02:24:49;101641.52;;;8.18;68.44
76553;BME280;65395;53.168;18.156;2023-05-14T02:27:17;101642.85;;;8.15;68.74
76553;BME280;65395;53.168;18.156;2023-05-14T02:29:44;101636.64;;;8.10;68.80
76553;BME280;65395;53.168;18.156;2023-05-14T02:32:10;101638.64;;;8.06;69.06
76553;BME280;65395;53.168;18.156;2023-05-14T02:34:37;101639.17;;;8.03;69.15
76553;BME280;65395;53.168;18.156;2023-05-14T02:37:04;101634.05;;;8.01;69.26
76553;BME280;65395;53.168;18.156;2023-05-14T02:39:31;101631.92;;;7.98;69.50
76553;BME280;65395;53.168;18.156;2023-05-14T02:41:57;101632.45;;;7.96;69.51
76553;BME280;65395;53.168;18.156;2023-05-14T02:44:24;101634.05;;;7.92;69.71
76553;BME280;65395;53.168;18.156;2023-05-14T02:46:50;101631.77;;;7.91;70.02
76553;BME280;65395;53.168;18.156;2023-05-14T02:49:17;101631.04;;;7.90;70.24
76553;BME280;65395;53.168;18.156;2023-05-14T02:51:44;101630.23;;;7.89;70.20
76553;BME280;65395;53.168;18.156;2023-05-14T02:54:11;101628.84;;;7.88;70.47
76553;BME280;65395;53.168;18.156;2023-05-14T02:56:37;101629.45;;;7.86;70.72
76553;BME280;65395;53.168;18.156;2023-05-14T02:59:04;101626.76;;;7.85;70.67
76553;BME280;65395;53.168;18.156;2023-05-14T03:01:31;101628.85;;;7.84;70.39
76553;BME280;65395;53.168;18.156;2023-05-14T03:03:57;101628.41;;;7.83;70.63
76553;BME280;65395;53.168;18.156;2023-05-14T03:06:24;101634.15;;;7.81;70.56
76553;BME280;65395;53.168;18.156;2023-05-14T03:08:51;101637.48;;;7.79;70.57
76553;BME280;65395;53.168;18.156;2023-05-14T03:11:18;101636.52;;;7.77;70.65
76553;BME280;65395;53.168;18.156;2023-05-14T03:13:44;101637.52;;;7.74;70.70
76553;BME280;65395;53.168;18.156;2023-05-14T03:16:11;101636.50;;;7.73;71.04
76553;BME280;65395;53.168;18.156;2023-05-14T03:18:38;101637.52;;;7.74;71.67
76553;BME280;65395;53.168;18.156;2023-05-14T03:21:05;101636.21;;;7.79;72.23
76553;BME280;65395;53.168;18.156;2023-05-14T03:23:32;101630.56;;;7.87;72.62
76553;BME280;65395;53.168;18.156;2023-05-14T03:26:00;101629.76;;;7.94;72.53
76553;BME280;65395;53.168;18.156;2023-05-14T03:28:27;101629.65;;;8.01;72.45
76553;BME280;65395;53.168;18.156;2023-05-14T03:30:54;101632.14;;;8.07;72.19
76553;BME280;65395;53.168;18.156;2023-05-14T03:33:21;101628.77;;;8.11;71.93
76553;BME280;65395;53.168;18.156;2023-05-14T03:35:48;101624.44;;;8.13;71.96
76553;BME280;65395;53.168;18.156;2023-05-14T03:38:14;101625.92;;;8.15;72.12
76553;BME280;65395;53.168;18.156;2023-05-14T03:40:43;101627.14;;;8.19;72.04
76553;BME280;65395;53.168;18.156;2023-05-14T03:43:10;101622.91;;;8.21;71.92
76553;BME280;65395;53.168;18.156;2023-05-14T03:45:37;101623.86;;;8.25;72.01
76553;BME280;65395;53.168;18.156;2023-05-14T03:48:04;101620.58;;;8.31;72.18
76553;BME280;65395;53.168;18.156;2023-05-14T03:50:32;101617.16;;;8.39;72.20
76553;BME280;65395;53.168;18.156;2023-05-14T03:52:58;101616.99;;;8.49;72.39
76553;BME280;65395;53.168;18.156;2023-05-14T03:55:25;101615.27;;;8.60;72.02
76553;BME280;65395;53.168;18.156;2023-05-14T03:57:52;101615.08;;;8.67;71.95
76553;BME280;65395;53.168;18.156;2023-05-14T04:00:19;101612.62;;;8.75;71.85
76553;BME280;65395;53.168;18.156;2023-05-14T04:02:47;101612.91;;;8.84;71.79
76553;BME280;65395;53.168;18.156;2023-05-14T04:05:15;101613.55;;;8.91;71.75
76553;BME280;65395;53.168;18.156;2023-05-14T04:07:42;101612.27;;;9.00;71.62
76553;BME280;65395;53.168;18.156;2023-05-14T04:10:08;101615.80;;;9.07;71.51
76553;BME280;65395;53.168;18.156;2023-05-14T04:12:35;101614.60;;;9.15;71.56
76553;BME280;65395;53.168;18.156;2023-05-14T04:15:04;101612.39;;;9.22;71.54
76553;BME280;65395;53.168;18.156;2023-05-14T04:17:31;101612.56;;;9.32;71.59
76553;BME280;65395;53.168;18.156;2023-05-14T04:19:58;101612.74;;;9.42;71.44
76553;BME280;65395;53.168;18.156;2023-05-14T04:22:24;101610.60;;;9.53;71.40
76553;BME280;65395;53.168;18.156;2023-05-14T04:24:51;101608.20;;;9.65;71.08
76553;BME280;65395;53.168;18.156;2023-05-14T04:27:19;101611.45;;;9.74;70.80
76553;BME280;65395;53.168;18.156;2023-05-14T04:29:48;101611.65;;;9.82;70.55
76553;BME280;65395;53.168;18.156;2023-05-14T04:32:15;101611.28;;;9.90;70.39
76553;BME280;65395;53.168;18.156;2023-05-14T04:34:43;101607.63;;;10.00;70.18
76553;BME280;65395;53.168;18.156;2023-05-14T04:37:10;101607.11;;;10.10;69.88
76553;BME280;65395;53.168;18.156;2023-05-14T04:39:37;101610.11;;;10.19;69.67
76553;BME280;65395;53.168;18.156;2023-05-14T04:42:04;101611.27;;;10.27;69.37
76553;BME280;65395;53.168;18.156;2023-05-14T04:44:33;101614.06;;;10.35;69.15
76553;BME280;65395;53.168;18.156;2023-05-14T04:47:00;101609.60;;;10.44;68.89
76553;BME280;65395;53.168;18.156;2023-05-14T04:49:27;101606.52;;;10.53;68.64
76553;BME280;65395;53.168;18.156;2023-05-14T04:51:54;101609.84;;;10.61;68.43
76553;BME280;65395;53.168;18.156;2023-05-14T04:54:21;101608.54;;;10.69;68.23
76553;BME280;65395;53.168;18.156;2023-05-14T04:56:48;101605.86;;;10.77;67.98
76553;BME280;65395;53.168;18.156;2023-05-14T04:59:15;101609.66;;;10.85;67.71
76553;BME280;65395;53.168;18.156;2023-05-14T05:01:42;101607.66;;;10.93;67.59
76553;BME280;65395;53.168;18.156;2023-05-14T05:04:08;101606.34;;;10.99;67.39
76553;BME280;65395;53.168;18.156;2023-05-14T05:06:35;101603.54;;;11.06;67.25
76553;BME280;65395;53.168;18.156;2023-05-14T05:09:02;101600.43;;;11.12;67.01
76553;BME280;65395;53.168;18.156;2023-05-14T05:11:29;101603.44;;;11.17;66.87
76553;BME280;65395;53.168;18.156;2023-05-14T05:13:56;101605.80;;;11.24;66.74
76553;BME280;65395;53.168;18.156;2023-05-14T05:16:22;101604.33;;;11.29;66.59
76553;BME280;65395;53.168;18.156;2023-05-14T05:18:49;101601.04;;;11.36;66.35
76553;BME280;65395;53.168;18.156;2023-05-14T05:21:16;101591.89;;;11.43;66.18
76553;BME280;65395;53.168;18.156;2023-05-14T05:23:42;101590.55;;;11.50;66.05
76553;BME280;65395;53.168;18.156;2023-05-14T05:26:09;101588.16;;;11.58;65.93
76553;BME280;65395;53.168;18.156;2023-05-14T05:28:36;101587.84;;;11.65;65.83
76553;BME280;65395;53.168;18.156;2023-05-14T05:31:02;101582.23;;;11.70;65.62
76553;BME280;65395;53.168;18.156;2023-05-14T05:33:29;101586.52;;;11.83;65.53
76553;BME280;65395;53.168;18.156;2023-05-14T05:35:56;101587.07;;;11.92;65.29
76553;BME280;65395;53.168;18.156;2023-05-14T05:38:22;101588.93;;;12.02;65.21
76553;BME280;65395;53.168;18.156;2023-05-14T05:40:49;101585.34;;;12.14;65.02
76553;BME280;65395;53.168;18.156;2023-05-14T05:43:15;101584.20;;;12.27;64.82
76553;BME280;65395;53.168;18.156;2023-05-14T05:45:42;101582.77;;;12.39;64.69
76553;BME280;65395;53.168;18.156;2023-05-14T05:48:09;101579.69;;;12.50;64.26
76553;BME280;65395;53.168;18.156;2023-05-14T05:50:36;101582.45;;;12.63;63.85
76553;BME280;65395;53.168;18.156;2023-05-14T05:53:03;101582.80;;;12.78;63.67
76553;BME280;65395;53.168;18.156;2023-05-14T05:55:29;101583.00;;;12.93;63.45
76553;BME280;65395;53.168;18.156;2023-05-14T05:57:56;101583.57;;;13.11;63.20
76553;BME280;65395;53.168;18.156;2023-05-14T06:00:23;101585.47;;;13.29;63.02
76553;BME280;65395;53.168;18.156;2023-05-14T06:02:52;101578.20;;;13.49;62.85
76553;BME280;65395;53.168;18.156;2023-05-14T06:05:18;101581.05;;;13.71;62.53
76553;BME280;65395;53.168;18.156;2023-05-14T06:07:45;101580.29;;;13.91;62.29
76553;BME280;65395;53.168;18.156;2023-05-14T06:10:12;101576.83;;;14.12;61.78
76553;BME280;65395;53.168;18.156;2023-05-14T06:12:38;101576.22;;;14.30;61.44
76553;BME280;65395;53.168;18.156;2023-05-14T06:15:06;101579.23;;;14.47;61.29
76553;BME280;65395;53.168;18.156;2023-05-14T06:17:33;101575.40;;;14.65;60.72
76553;BME280;65395;53.168;18.156;2023-05-14T06:19:59;101571.67;;;14.78;60.52
76553;BME280;65395;53.168;18.156;2023-05-14T06:22:26;101571.77;;;14.89;60.30
76553;BME280;65395;53.168;18.156;2023-05-14T06:24:53;101573.95;;;14.99;60.23
76553;BME280;65395;53.168;18.156;2023-05-14T06:27:19;101574.25;;;15.09;59.79
76553;BME280;65395;53.168;18.156;2023-05-14T06:29:46;101575.63;;;15.18;59.70
76553;BME280;65395;53.168;18.156;2023-05-14T06:32:13;101575.27;;;15.26;59.22
76553;BME280;65395;53.168;18.156;2023-05-14T06:34:41;101577.05;;;15.33;58.71
76553;BME280;65395;53.168;18.156;2023-05-14T06:37:08;101577.27;;;15.38;58.58
76553;BME280;65395;53.168;18.156;2023-05-14T06:39:36;101577.86;;;15.42;57.95
76553;BME280;65395;53.168;18.156;2023-05-14T06:42:03;101577.14;;;15.43;57.82
76553;BME280;65395;53.168;18.156;2023-05-14T06:44:31;101576.99;;;15.43;57.62
76553;BME280;65395;53.168;18.156;2023-05-14T06:46:57;101582.23;;;15.45;57.43
76553;BME280;65395;53.168;18.156;2023-05-14T06:49:24;101578.42;;;15.43;57.38
76553;BME280;65395;53.168;18.156;2023-05-14T06:51:51;101578.58;;;15.44;57.67
76553;BME280;65395;53.168;18.156;2023-05-14T06:54:17;101578.46;;;15.48;57.84
76553;BME280;65395;53.168;18.156;2023-05-14T06:56:45;101575.75;;;15.51;57.78
76553;BME280;65395;53.168;18.156;2023-05-14T06:59:12;101580.64;;;15.58;57.66
76553;BME280;65395;53.168;18.156;2023-05-14T07:01:39;101578.19;;;15.67;57.62
76553;BME280;65395;53.168;18.156;2023-05-14T07:04:06;101575.15;;;15.78;57.78
76553;BME280;65395;53.168;18.156;2023-05-14T07:06:33;101571.59;;;15.91;57.63
76553;BME280;65395;53.168;18.156;2023-05-14T07:09:00;101569.95;;;15.98;57.29
76553;BME280;65395;53.168;18.156;2023-05-14T07:11:26;101571.80;;;16.01;57.49
76553;BME280;65395;53.168;18.156;2023-05-14T07:13:53;101567.40;;;16.05;57.48
76553;BME280;65395;53.168;18.156;2023-05-14T07:16:20;101570.20;;;16.09;57.36
76553;BME280;65395;53.168;18.156;2023-05-14T07:18:47;101561.70;;;16.20;57.09
76553;BME280;65395;53.168;18.156;2023-05-14T07:21:16;101565.11;;;16.39;56.84
76553;BME280;65395;53.168;18.156;2023-05-14T07:23:42;101560.94;;;16.59;56.45
76553;BME280;65395;53.168;18.156;2023-05-14T07:26:09;101558.02;;;16.76;56.15
76553;BME280;65395;53.168;18.156;2023-05-14T07:28:36;101553.60;;;16.89;55.59
76553;BME280;65395;53.168;18.156;2023-05-14T07:31:03;101548.85;;;17.00;55.42
76553;BME280;65395;53.168;18.156;2023-05-14T07:33:34;101550.70;;;17.11;55.56
76553;BME280;65395;53.168;18.156;2023-05-14T07:36:02;101549.59;;;17.21;54.58
76553;BME280;65395;53.168;18.156;2023-05-14T07:38:28;101546.83;;;17.30;53.68
76553;BME280;65395;53.168;18.156;2023-05-14T07:40:55;101544.42;;;17.38;53.84
76553;BME280;65395;53.168;18.156;2023-05-14T07:43:22;101538.42;;;17.44;53.70
76553;BME280;65395;53.168;18.156;2023-05-14T07:45:49;101537.98;;;17.51;52.93
76553;BME280;65395;53.168;18.156;2023-05-14T07:48:15;101533.47;;;17.57;53.20
76553;BME280;65395;53.168;18.156;2023-05-14T07:50:42;101534.30;;;17.65;52.73
76553;BME280;65395;53.168;18.156;2023-05-14T07:53:09;101528.36;;;17.72;51.91
76553;BME280;65395;53.168;18.156;2023-05-14T07:55:35;101526.36;;;17.78;51.98
76553;BME280;65395;53.168;18.156;2023-05-14T07:58:02;101525.03;;;17.85;51.65
76553;BME280;65395;53.168;18.156;2023-05-14T08:00:29;101519.23;;;17.92;51.74
76553;BME280;65395;53.168;18.156;2023-05-14T08:02:56;101514.52;;;18.01;51.62
76553;BME280;65395;53.168;18.156;2023-05-14T08:05:22;101511.14;;;18.08;51.45
76553;BME280;65395;53.168;18.156;2023-05-14T08:07:49;101506.70;;;18.17;51.15
76553;BME280;65395;53.168;18.156;2023-05-14T08:10:16;101506.55;;;18.25;50.96
76553;BME280;65395;53.168;18.156;2023-05-14T08:12:42;101505.28;;;18.35;50.62
76553;BME280;65395;53.168;18.156;2023-05-14T08:15:09;101506.42;;;18.45;50.32
76553;BME280;65395;53.168;18.156;2023-05-14T08:17:36;101507.48;;;18.55;49.37
76553;BME280;65395;53.168;18.156;2023-05-14T08:20:03;101499.48;;;18.64;49.33
76553;BME280;65395;53.168;18.156;2023-05-14T08:22:31;101500.24;;;18.73;48.73
76553;BME280;65395;53.168;18.156;2023-05-14T08:24:58;101492.45;;;18.82;49.00
76553;BME280;65395;53.168;18.156;2023-05-14T08:27:26;101492.30;;;18.93;48.41
76553;BME280;65395;53.168;18.156;2023-05-14T08:29:53;101487.70;;;19.04;48.21
76553;BME280;65395;53.168;18.156;2023-05-14T08:32:19;101488.92;;;19.16;48.51
76553;BME280;65395;53.168;18.156;2023-05-14T08:34:46;101487.36;;;19.28;48.07
76553;BME280;65395;53.168;18.156;2023-05-14T08:37:13;101479.18;;;19.39;47.69
76553;BME280;65395;53.168;18.156;2023-05-14T08:39:39;101475.40;;;19.52;45.77
76553;BME280;65395;53.168;18.156;2023-05-14T08:42:06;101470.20;;;19.68;43.92
76553;BME280;65395;53.168;18.156;2023-05-14T08:44:38;101470.88;;;19.82;43.39
76553;BME280;65395;53.168;18.156;2023-05-14T08:47:10;101468.33;;;19.96;42.01
76553;BME280;65395;53.168;18.156;2023-05-14T08:49:40;101470.91;;;20.08;42.29
76553;BME280;65395;53.168;18.156;2023-05-14T08:52:08;101466.73;;;20.19;41.84
76553;BME280;65395;53.168;18.156;2023-05-14T08:54:35;101465.48;;;20.30;41.92
76553;BME280;65395;53.168;18.156;2023-05-14T08:57:03;101459.52;;;20.42;41.57
76553;BME280;65395;53.168;18.156;2023-05-14T08:59:30;101452.70;;;20.56;41.26
76553;BME280;65395;53.168;18.156;2023-05-14T09:02:00;101450.70;;;20.69;39.74
76553;BME280;65395;53.168;18.156;2023-05-14T09:04:27;101454.79;;;20.82;40.00
76553;BME280;65395;53.168;18.156;2023-05-14T09:06:55;101452.20;;;20.94;38.77
76553;BME280;65395;53.168;18.156;2023-05-14T09:09:22;101448.59;;;21.05;38.42
76553;BME280;65395;53.168;18.156;2023-05-14T09:11:50;101443.51;;;21.06;38.88
76553;BME280;65395;53.168;18.156;2023-05-14T09:14:18;101443.67;;;21.02;38.52
76553;BME280;65395;53.168;18.156;2023-05-14T09:16:47;101440.85;;;21.00;38.18
76553;BME280;65395;53.168;18.156;2023-05-14T09:19:14;101438.76;;;20.97;37.97
76553;BME280;65395;53.168;18.156;2023-05-14T09:21:44;101433.48;;;20.95;37.63
76553;BME280;65395;53.168;18.156;2023-05-14T09:24:21;101432.68;;;20.92;37.08
76553;BME280;65395;53.168;18.156;2023-05-14T09:26:51;101429.29;;;20.91;37.07
76553;BME280;65395;53.168;18.156;2023-05-14T09:29:18;101431.38;;;21.04;36.69
76553;BME280;65395;53.168;18.156;2023-05-14T09:31:45;101427.20;;;21.26;36.31
76553;BME280;65395;53.168;18.156;2023-05-14T09:34:23;101425.92;;;21.46;36.21
76553;BME280;65395;53.168;18.156;2023-05-14T09:36:59;101425.05;;;21.62;36.02
76553;BME280;65395;53.168;18.156;2023-05-14T09:39:27;101422.88;;;21.83;35.08
76553;BME280;65395;53.168;18.156;2023-05-14T09:41:55;101421.11;;;21.93;34.46
76553;BME280;65395;53.168;18.156;2023-05-14T09:44:23;101423.41;;;22.02;34.86
76553;BME280;65395;53.168;18.156;2023-05-14T09:46:51;101417.36;;;22.20;34.67
76553;BME280;65395;53.168;18.156;2023-05-14T09:49:19;101415.77;;;22.37;34.54
76553;BME280;65395;53.168;18.156;2023-05-14T09:51:47;101414.46;;;22.50;33.98
76553;BME280;65395;53.168;18.156;2023-05-14T09:54:14;101405.17;;;22.64;33.66
76553;BME280;65395;53.168;18.156;2023-05-14T09:56:42;101406.58;;;22.68;32.53
76553;BME280;65395;53.168;18.156;2023-05-14T09:59:09;101408.19;;;22.68;32.35
76553;BME280;65395;53.168;18.156;2023-05-14T10:01:36;101409.58;;;22.68;31.62
76553;BME280;65395;53.168;18.156;2023-05-14T10:04:06;101405.42;;;22.68;31.76
76553;BME280;65395;53.168;18.156;2023-05-14T10:06:35;101401.71;;;22.83;31.62
76553;BME280;65395;53.168;18.156;2023-05-14T10:09:11;101394.45;;;23.08;30.71
76553;BME280;65395;53.168;18.156;2023-05-14T10:11:41;101387.04;;;23.35;30.94
76553;BME280;65395;53.168;18.156;2023-05-14T10:14:13;101381.08;;;23.58;30.41
76553;BME280;65395;53.168;18.156;2023-05-14T10:16:49;101379.73;;;23.80;30.48
76553;BME280;65395;53.168;18.156;2023-05-14T10:19:19;101377.65;;;24.01;29.80
76553;BME280;65395;53.168;18.156;2023-05-14T10:21:54;101379.08;;;23.99;29.36
76553;BME280;65395;53.168;18.156;2023-05-14T10:24:21;101376.66;;;23.97;29.86
76553;BME280;65395;53.168;18.156;2023-05-14T10:26:50;101375.76;;;24.09;28.76
76553;BME280;65395;53.168;18.156;2023-05-14T10:29:17;101370.09;;;24.34;28.98
76553;BME280;65395;53.168;18.156;2023-05-14T10:31:52;101364.88;;;24.58;28.55
76553;BME280;65395;53.168;18.156;2023-05-14T10:34:30;101361.93;;;24.85;28.44
76553;BME280;65395;53.168;18.156;2023-05-14T10:37:00;101365.36;;;25.00;27.86
76553;BME280;65395;53.168;18.156;2023-05-14T10:39:41;101365.71;;;25.15;27.73
76553;BME280;65395;53.168;18.156;2023-05-14T10:42:11;101357.76;;;25.19;27.55
76553;BME280;65395;53.168;18.156;2023-05-14T10:44:44;101360.02;;;25.15;26.56
76553;BME280;65395;53.168;18.156;2023-05-14T10:47:14;101356.32;;;25.22;25.83
76553;BME280;65395;53.168;18.156;2023-05-14T10:49:42;101352.75;;;25.27;25.08
76553;BME280;65395;53.168;18.156;2023-05-14T10:52:10;101349.77;;;25.22;25.50
76553;BME280;65395;53.168;18.156;2023-05-14T10:54:37;101346.56;;;25.30;25.64
76553;BME280;65395;53.168;18.156;2023-05-14T10:57:10;101335.92;;;25.38;25.37
76553;BME280;65395;53.168;18.156;2023-05-14T10:59:40;101336.59;;;25.35;25.27
76553;BME280;65395;53.168;18.156;2023-05-14T11:02:18;101332.61;;;25.26;25.45
76553;BME280;65395;53.168;18.156;2023-05-14T11:04:57;101338.56;;;25.19;25.44
76553;BME280;65395;53.168;18.156;2023-05-14T11:07:35;101334.55;;;25.01;25.30
76553;BME280;65395;53.168;18.156;2023-05-14T11:10:05;101333.73;;;24.77;24.34
76553;BME280;65395;53.168;18.156;2023-05-14T11:12:33;101329.64;;;24.51;25.21
76553;BME280;65395;53.168;18.156;2023-05-14T11:15:02;101331.91;;;24.34;25.74
76553;BME280;65395;53.168;18.156;2023-05-14T11:17:30;101324.60;;;24.15;25.70
76553;BME280;65395;53.168;18.156;2023-05-14T11:19:57;101318.32;;;23.92;25.83
76553;BME280;65395;53.168;18.156;2023-05-14T11:22:25;101326.80;;;23.81;26.25
76553;BME280;65395;53.168;18.156;2023-05-14T11:24:52;101320.34;;;23.77;26.50
76553;BME280;65395;53.168;18.156;2023-05-14T11:27:20;101317.87;;;23.84;26.38
76553;BME280;65395;53.168;18.156;2023-05-14T11:29:48;101311.58;;;23.89;26.33
76553;BME280;65395;53.168;18.156;2023-05-14T11:32:16;101307.33;;;23.93;26.36
76553;BME280;65395;53.168;18.156;2023-05-14T11:34:44;101303.49;;;23.93;25.82
76553;BME280;65395;53.168;18.156;2023-05-14T11:37:12;101301.84;;;24.04;26.08
76553;BME280;65395;53.168;18.156;2023-05-14T11:39:47;101300.29;;;24.16;25.46
76553;BME280;65395;53.168;18.156;2023-05-14T11:42:14;101297.52;;;24.22;25.31
76553;BME280;65395;53.168;18.156;2023-05-14T11:44:45;101297.21;;;24.21;25.52
76553;BME280;65395;53.168;18.156;2023-05-14T11:47:12;101296.00;;;24.13;25.41
76553;BME280;65395;53.168;18.156;2023-05-14T11:49:39;101288.34;;;24.02;25.38
76553;BME280;65395;53.168;18.156;2023-05-14T11:52:08;101288.52;;;23.86;25.27
76553;BME280;65395;53.168;18.156;2023-05-14T11:54:37;101282.86;;;23.67;25.39
76553;BME280;65395;53.168;18.156;2023-05-14T11:57:09;101280.33;;;23.59;25.64
76553;BME280;65395;53.168;18.156;2023-05-14T11:59:38;101280.48;;;23.76;25.46
76553;BME280;65395;53.168;18.156;2023-05-14T12:02:09;101277.17;;;24.10;25.35
76553;BME280;65395;53.168;18.156;2023-05-14T12:04:37;101275.02;;;24.44;24.96
76553;BME280;65395;53.168;18.156;2023-05-14T12:07:14;101267.70;;;24.72;24.99
76553;BME280;65395;53.168;18.156;2023-05-14T12:09:43;101264.42;;;24.91;24.44
76553;BME280;65395;53.168;18.156;2023-05-14T12:12:19;101260.13;;;24.98;24.19
76553;BME280;65395;53.168;18.156;2023-05-14T12:14:48;101261.17;;;24.96;24.59
76553;BME280;65395;53.168;18.156;2023-05-14T12:17:17;101258.25;;;24.96;24.83
76553;BME280;65395;53.168;18.156;2023-05-14T12:19:46;101259.34;;;24.97;24.84
76553;BME280;65395;53.168;18.156;2023-05-14T12:22:17;101255.72;;;24.98;24.71
76553;BME280;65395;53.168;18.156;2023-05-14T12:24:53;101255.33;;;25.03;24.62
76553;BME280;65395;53.168;18.156;2023-05-14T12:27:22;101257.27;;;25.12;24.64
76553;BME280;65395;53.168;18.156;2023-05-14T12:30:03;101255.20;;;25.18;24.38
76553;BME280;65395;53.168;18.156;2023-05-14T12:32:31;101247.61;;;25.23;24.46
76553;BME280;65395;53.168;18.156;2023-05-14T12:34:58;101241.66;;;25.22;23.99
76553;BME280;65395;53.168;18.156;2023-05-14T12:37:26;101237.90;;;25.10;24.10
76553;BME280;65395;53.168;18.156;2023-05-14T12:39:53;101239.58;;;24.89;24.29
76553;BME280;65395;53.168;18.156;2023-05-14T12:42:20;101238.60;;;24.68;24.38
76553;BME280;65395;53.168;18.156;2023-05-14T12:44:47;101232.20;;;24.45;24.12
76553;BME280;65395;53.168;18.156;2023-05-14T12:47:14;101230.05;;;24.29;24.36